Armadores I — SY8463 — position and weather

sailwx.info

Track history (hours):
 
Tides and Currents Weather Stations Pressure Air Temp Water Temp Dewpoint Dewpoint Depression Visibility Wind Speed Wind Dir Waves Ship Positions

Armadores I

Last reported at 2014-Jul-22 03:09 UTC. Time now 2014-Jul-22 07:26 UTC.
Position N 37°57' E 023°36'.

Length 32 m.

Type: Tug. MMSI: 240694000.

Date/timePositionNaut miles runAvg speedWind from/ knotsBaromVisibWave heightAir tempDewpointWater temp
2014-Jul-22 03:09N 37°57' E 023°36'1 2.5
2014-Jul-22 02:33N 37°56' E 023°38'0 0.3
2014-Jul-22 01:33N 37°56' E 023°37'0 0.1
2014-Jul-22 00:33N 37°56' E 023°37'0 0.0
2014-Jul-21 23:33N 37°56' E 023°37'0 0.4
2014-Jul-21 22:33N 37°56' E 023°37'2 1.8
2014-Jul-21 21:33N 37°56' E 023°35'1 0.7
2014-Jul-21 20:33N 37°57' E 023°35'0 1.1
2014-Jul-21 20:18N 37°57' E 023°35'1 1.4
2014-Jul-21 19:33N 37°57' E 023°36'0 0.1
2014-Jul-21 18:33N 37°57' E 023°37'0 0.0
2014-Jul-21 17:34N 37°57' E 023°37'0 0.0
2014-Jul-21 16:33N 37°57' E 023°37'1 0.6
2014-Jul-21 15:33N 37°57' E 023°36'1 1.5
2014-Jul-21 14:33N 37°56' E 023°37'1 1.4
2014-Jul-21 13:34N 37°57' E 023°37'0 0.0
2014-Jul-21 12:33N 37°57' E 023°37'0 0.0
2014-Jul-21 11:33N 37°57' E 023°37'0 0.0
2014-Jul-21 07:34N 37°57' E 023°37'3 2.6
2014-Jul-21 06:33N 37°57' E 023°33'2 0.4
2014-Jul-21 02:30N 37°57' E 023°35'0 0.3
2014-Jul-21 01:14N 37°57' E 023°35'1 0.1
2014-Jul-20 16:13N 37°57' E 023°36'2 0.1
2014-Jul-19 13:33N 37°56' E 023°37'1 1.3
2014-Jul-19 12:33N 37°57' E 023°37'0 0.0
2014-Jul-19 11:33N 37°57' E 023°37'0 0.0
2014-Jul-19 10:33N 37°57' E 023°37'0 0.0
2014-Jul-19 09:33N 37°57' E 023°37'0 0.0
2014-Jul-19 08:33N 37°57' E 023°37'0 0.0
2014-Jul-19 07:33N 37°57' E 023°37'0 0.0
2014-Jul-19 06:33N 37°57' E 023°37'0 0.0
2014-Jul-19 05:33N 37°57' E 023°37'0 0.0
2014-Jul-19 04:33N 37°57' E 023°37'0 0.0
2014-Jul-19 03:34N 37°57' E 023°37'1 1.2
2014-Jul-19 02:33N 37°56' E 023°37'1 0.7
2014-Jul-19 01:33N 37°56' E 023°37'1 0.5
2014-Jul-19 00:33N 37°56' E 023°37'0 0.0
2014-Jul-18 23:33N 37°56' E 023°37'0 0.4
2014-Jul-18 22:33N 37°56' E 023°37'7 7.5
2014-Jul-18 21:34N 38°02' E 023°31'5 4.9
2014-Jul-18 20:33N 37°57' E 023°33'3 2.7
2014-Jul-18 19:33N 37°57' E 023°37'0 0.0
2014-Jul-18 18:33N 37°57' E 023°37'0 0.0
2014-Jul-18 17:34N 37°57' E 023°37'0 0.0
2014-Jul-18 16:34N 37°57' E 023°37'0 0.0
2014-Jul-18 15:33N 37°57' E 023°37'0 0.0
2014-Jul-18 14:34N 37°57' E 023°37'0 0.0
2014-Jul-18 13:33N 37°57' E 023°37'0 0.0
2014-Jul-18 12:33N 37°57' E 023°37'0 0.0
2014-Jul-18 11:34N 37°57' E 023°37'0 0.0
2014-Jul-18 10:33N 37°57' E 023°37'0 0.0
2014-Jul-18 00:34N 37°57' E 023°37'1 1.1
2014-Jul-17 23:33N 37°57' E 023°35'1 0.7
2014-Jul-17 22:33N 37°57' E 023°36'0 0.0
2014-Jul-17 21:34N 37°57' E 023°36'0 0.0
2014-Jul-17 20:33N 37°57' E 023°36'0 0.0
2014-Jul-17 19:33N 37°57' E 023°36'0 0.0
2014-Jul-17 18:34N 37°57' E 023°36'0 0.4
2014-Jul-17 17:33N 37°57' E 023°36'1 0.6
2014-Jul-17 16:33N 37°57' E 023°36'2 1.8
2014-Jul-17 15:33N 37°56' E 023°37'0 0.0
2014-Jul-17 14:33N 37°56' E 023°37'0 0.0
2014-Jul-17 13:33N 37°56' E 023°37'0 0.0
2014-Jul-17 12:33N 37°56' E 023°37'2 1.5
2014-Jul-17 11:33N 37°57' E 023°36'0 0.0
2014-Jul-17 04:33N 37°57' E 023°36'2 1.7
2014-Jul-17 03:33N 37°57' E 023°38'1 1.2
2014-Jul-17 02:33N 37°56' E 023°37'1 0.7
2014-Jul-17 01:33N 37°56' E 023°37'0 0.0
2014-Jul-17 00:33N 37°56' E 023°37'2 1.8
2014-Jul-16 23:34N 37°57' E 023°35'1 0.8
2014-Jul-16 22:33N 37°57' E 023°36'0 0.0
2014-Jul-16 21:33N 37°57' E 023°36'0 0.0
2014-Jul-16 20:33N 37°57' E 023°36'0 0.0
2014-Jul-16 19:33N 37°57' E 023°36'0 0.0
2014-Jul-16 18:33N 37°57' E 023°36'0 0.3
2014-Jul-16 17:33N 37°57' E 023°36'1 0.7
2014-Jul-16 16:33N 37°57' E 023°35'1 1.0
2014-Jul-16 15:34N 37°57' E 023°36'0 0.0
2014-Jul-16 14:34N 37°57' E 023°36'0 0.0
2014-Jul-16 13:34N 37°57' E 023°36'1 1.1
2014-Jul-16 12:34N 37°57' E 023°35'1 0.8
2014-Jul-16 11:34N 37°57' E 023°36'0 0.2
2014-Jul-16 10:32N 37°57' E 023°36'0 0.0
2014-Jul-16 05:18N 37°57' E 023°36'1 1.2
2014-Jul-16 04:33N 37°57' E 023°35'1 0.9
2014-Jul-16 03:33N 37°57' E 023°36'0 0.0
2014-Jul-16 02:33N 37°57' E 023°36'0 0.0
2014-Jul-16 01:33N 37°57' E 023°36'0 0.0
2014-Jul-16 00:33N 37°57' E 023°36'0 0.0
2014-Jul-15 23:32N 37°57' E 023°36'1 0.8
2014-Jul-15 22:33N 37°57' E 023°35'1 0.8
2014-Jul-15 21:33N 37°57' E 023°36'0 0.0
2014-Jul-15 20:33N 37°57' E 023°36'0 0.0
2014-Jul-15 19:33N 37°57' E 023°36'0 0.0
2014-Jul-15 18:33N 37°57' E 023°36'0 0.0
2014-Jul-15 17:33N 37°57' E 023°36'0 0.0
2014-Jul-15 16:34N 37°57' E 023°36'0 0.0
2014-Jul-15 15:33N 37°57' E 023°36'0 0.0
2014-Jul-15 14:33N 37°57' E 023°36'2 1.6
2014-Jul-15 13:33N 37°56' E 023°38'2 1.6
2014-Jul-15 12:33N 37°57' E 023°36'0 0.4
2014-Jul-15 11:34N 37°57' E 023°37'0 0.0
2014-Jul-15 03:34N 37°57' E 023°37'0 0.0
2014-Jul-15 02:33N 37°57' E 023°37'0 0.0
2014-Jul-15 01:34N 37°57' E 023°37'0 0.0
2014-Jul-15 00:33N 37°57' E 023°37'0 0.0
2014-Jul-14 23:33N 37°57' E 023°37'0 0.0
2014-Jul-14 22:33N 37°57' E 023°37'0 0.0
2014-Jul-14 21:34N 37°57' E 023°37'0 0.0
2014-Jul-14 20:33N 37°57' E 023°37'0 0.0
2014-Jul-14 19:34N 37°57' E 023°37'0 0.0
2014-Jul-14 18:33N 37°57' E 023°37'0 0.0
2014-Jul-14 17:33N 37°57' E 023°37'0 0.0
2014-Jul-14 16:33N 37°57' E 023°37'1 0.9
2014-Jul-14 15:33N 37°57' E 023°36'1 0.8
2014-Jul-14 14:33N 37°56' E 023°37'1 1.1
2014-Jul-14 13:33N 37°57' E 023°36'0 0.2
2014-Jul-14 12:33N 37°57' E 023°37'0 0.0
2014-Jul-14 11:33N 37°57' E 023°37'0 0.0
2014-Jul-14 10:33N 37°57' E 023°37'0 0.0
2014-Jul-14 07:30N 37°57' E 023°37'0 0.3
2014-Jul-14 06:33N 37°58' E 023°36'1 0.9
2014-Jul-14 05:33N 37°57' E 023°36'0 0.3
2014-Jul-14 04:21N 37°57' E 023°36'2 1.9
2014-Jul-14 03:31N 37°56' E 023°38'2 0.2
2014-Jul-13 16:28N 37°57' E 023°35'1 0.2
2014-Jul-13 12:28N 37°57' E 023°36'2 0.8
2014-Jul-13 10:26N 37°56' E 023°36'2 0.1
2014-Jul-12 13:31N 37°57' E 023°37'0 0.0
2014-Jul-12 12:33N 37°57' E 023°37'0 0.0
2014-Jul-12 11:34N 37°57' E 023°37'0 0.0
2014-Jul-12 10:33N 37°57' E 023°37'0 0.0
2014-Jul-12 09:33N 37°57' E 023°37'2 2.5
2014-Jul-12 08:33N 37°57' E 023°34'4 4.2
2014-Jul-12 07:31N 38°01' E 023°36'2 2.1
2014-Jul-12 06:31N 38°00' E 023°33'4 4.6
2014-Jul-12 05:34N 37°57' E 023°36'1 1.4
2014-Jul-12 04:34N 37°55' E 023°36'0 0.3
2014-Jul-12 03:33N 37°55' E 023°36'  
Track history (hours):
 
Tides and Currents Weather Stations Pressure Air Temp Water Temp Dewpoint Dewpoint Depression Visibility Wind Speed Wind Dir Waves Ship Positions

Armadores I

Last reported at 2014-Jul-22 03:09 UTC. Time now 2014-Jul-22 07:26 UTC.
Position N 37°57' E 023°36'.

Length 32 m.

Type: Tug. MMSI: 240694000.

Date/timePositionNaut miles runAvg speedWind from/ knotsBaromVisibWave heightAir tempDewpointWater temp
2014-Jul-22 03:09N 37°57' E 023°36'1 2.5
2014-Jul-22 02:33N 37°56' E 023°38'0 0.3
2014-Jul-22 01:33N 37°56' E 023°37'0 0.1
2014-Jul-22 00:33N 37°56' E 023°37'0 0.0
2014-Jul-21 23:33N 37°56' E 023°37'0 0.4
2014-Jul-21 22:33N 37°56' E 023°37'2 1.8
2014-Jul-21 21:33N 37°56' E 023°35'1 0.7
2014-Jul-21 20:33N 37°57' E 023°35'0 1.1
2014-Jul-21 20:18N 37°57' E 023°35'1 1.4
2014-Jul-21 19:33N 37°57' E 023°36'0 0.1
2014-Jul-21 18:33N 37°57' E 023°37'0 0.0
2014-Jul-21 17:34N 37°57' E 023°37'0 0.0
2014-Jul-21 16:33N 37°57' E 023°37'1 0.6
2014-Jul-21 15:33N 37°57' E 023°36'1 1.5
2014-Jul-21 14:33N 37°56' E 023°37'1 1.4
2014-Jul-21 13:34N 37°57' E 023°37'0 0.0
2014-Jul-21 12:33N 37°57' E 023°37'0 0.0
2014-Jul-21 11:33N 37°57' E 023°37'0 0.0
2014-Jul-21 07:34N 37°57' E 023°37'3 2.6
2014-Jul-21 06:33N 37°57' E 023°33'2 0.4
2014-Jul-21 02:30N 37°57' E 023°35'0 0.3
2014-Jul-21 01:14N 37°57' E 023°35'1 0.1
2014-Jul-20 16:13N 37°57' E 023°36'2 0.1
2014-Jul-19 13:33N 37°56' E 023°37'1 1.3
2014-Jul-19 12:33N 37°57' E 023°37'0 0.0
2014-Jul-19 11:33N 37°57' E 023°37'0 0.0
2014-Jul-19 10:33N 37°57' E 023°37'0 0.0
2014-Jul-19 09:33N 37°57' E 023°37'0 0.0
2014-Jul-19 08:33N 37°57' E 023°37'0 0.0
2014-Jul-19 07:33N 37°57' E 023°37'0 0.0
2014-Jul-19 06:33N 37°57' E 023°37'0 0.0
2014-Jul-19 05:33N 37°57' E 023°37'0 0.0
2014-Jul-19 04:33N 37°57' E 023°37'0 0.0
2014-Jul-19 03:34N 37°57' E 023°37'1 1.2
2014-Jul-19 02:33N 37°56' E 023°37'1 0.7
2014-Jul-19 01:33N 37°56' E 023°37'1 0.5
2014-Jul-19 00:33N 37°56' E 023°37'0 0.0
2014-Jul-18 23:33N 37°56' E 023°37'0 0.4
2014-Jul-18 22:33N 37°56' E 023°37'7 7.5
2014-Jul-18 21:34N 38°02' E 023°31'5 4.9
2014-Jul-18 20:33N 37°57' E 023°33'3 2.7
2014-Jul-18 19:33N 37°57' E 023°37'0 0.0
2014-Jul-18 18:33N 37°57' E 023°37'0 0.0
2014-Jul-18 17:34N 37°57' E 023°37'0 0.0
2014-Jul-18 16:34N 37°57' E 023°37'0 0.0
2014-Jul-18 15:33N 37°57' E 023°37'0 0.0
2014-Jul-18 14:34N 37°57' E 023°37'0 0.0
2014-Jul-18 13:33N 37°57' E 023°37'0 0.0
2014-Jul-18 12:33N 37°57' E 023°37'0 0.0
2014-Jul-18 11:34N 37°57' E 023°37'0 0.0
2014-Jul-18 10:33N 37°57' E 023°37'0 0.0
2014-Jul-18 00:34N 37°57' E 023°37'1 1.1
2014-Jul-17 23:33N 37°57' E 023°35'1 0.7
2014-Jul-17 22:33N 37°57' E 023°36'0 0.0
2014-Jul-17 21:34N 37°57' E 023°36'0 0.0
2014-Jul-17 20:33N 37°57' E 023°36'0 0.0
2014-Jul-17 19:33N 37°57' E 023°36'0 0.0
2014-Jul-17 18:34N 37°57' E 023°36'0 0.4
2014-Jul-17 17:33N 37°57' E 023°36'1 0.6
2014-Jul-17 16:33N 37°57' E 023°36'2 1.8
2014-Jul-17 15:33N 37°56' E 023°37'0 0.0
2014-Jul-17 14:33N 37°56' E 023°37'0 0.0
2014-Jul-17 13:33N 37°56' E 023°37'0 0.0
2014-Jul-17 12:33N 37°56' E 023°37'2 1.5
2014-Jul-17 11:33N 37°57' E 023°36'0 0.0
2014-Jul-17 04:33N 37°57' E 023°36'2 1.7
2014-Jul-17 03:33N 37°57' E 023°38'1 1.2
2014-Jul-17 02:33N 37°56' E 023°37'1 0.7
2014-Jul-17 01:33N 37°56' E 023°37'0 0.0
2014-Jul-17 00:33N 37°56' E 023°37'2 1.8
2014-Jul-16 23:34N 37°57' E 023°35'1 0.8
2014-Jul-16 22:33N 37°57' E 023°36'0 0.0
2014-Jul-16 21:33N 37°57' E 023°36'0 0.0
2014-Jul-16 20:33N 37°57' E 023°36'0 0.0
2014-Jul-16 19:33N 37°57' E 023°36'0 0.0
2014-Jul-16 18:33N 37°57' E 023°36'0 0.3
2014-Jul-16 17:33N 37°57' E 023°36'1 0.7
2014-Jul-16 16:33N 37°57' E 023°35'1 1.0
2014-Jul-16 15:34N 37°57' E 023°36'0 0.0
2014-Jul-16 14:34N 37°57' E 023°36'0 0.0
2014-Jul-16 13:34N 37°57' E 023°36'1 1.1
2014-Jul-16 12:34N 37°57' E 023°35'1 0.8
2014-Jul-16 11:34N 37°57' E 023°36'0 0.2
2014-Jul-16 10:32N 37°57' E 023°36'0 0.0
2014-Jul-16 05:18N 37°57' E 023°36'1 1.2
2014-Jul-16 04:33N 37°57' E 023°35'1 0.9
2014-Jul-16 03:33N 37°57' E 023°36'0 0.0
2014-Jul-16 02:33N 37°57' E 023°36'0 0.0
2014-Jul-16 01:33N 37°57' E 023°36'0 0.0
2014-Jul-16 00:33N 37°57' E 023°36'0 0.0
2014-Jul-15 23:32N 37°57' E 023°36'1 0.8
2014-Jul-15 22:33N 37°57' E 023°35'1 0.8
2014-Jul-15 21:33N 37°57' E 023°36'0 0.0
2014-Jul-15 20:33N 37°57' E 023°36'0 0.0
2014-Jul-15 19:33N 37°57' E 023°36'0 0.0
2014-Jul-15 18:33N 37°57' E 023°36'0 0.0
2014-Jul-15 17:33N 37°57' E 023°36'0 0.0
2014-Jul-15 16:34N 37°57' E 023°36'0 0.0
2014-Jul-15 15:33N 37°57' E 023°36'0 0.0
2014-Jul-15 14:33N 37°57' E 023°36'2 1.6
2014-Jul-15 13:33N 37°56' E 023°38'2 1.6
2014-Jul-15 12:33N 37°57' E 023°36'0 0.4
2014-Jul-15 11:34N 37°57' E 023°37'0 0.0
2014-Jul-15 03:34N 37°57' E 023°37'0 0.0
2014-Jul-15 02:33N 37°57' E 023°37'0 0.0
2014-Jul-15 01:34N 37°57' E 023°37'0 0.0
2014-Jul-15 00:33N 37°57' E 023°37'0 0.0
2014-Jul-14 23:33N 37°57' E 023°37'0 0.0
2014-Jul-14 22:33N 37°57' E 023°37'0 0.0
2014-Jul-14 21:34N 37°57' E 023°37'0 0.0
2014-Jul-14 20:33N 37°57' E 023°37'0 0.0
2014-Jul-14 19:34N 37°57' E 023°37'0 0.0
2014-Jul-14 18:33N 37°57' E 023°37'0 0.0
2014-Jul-14 17:33N 37°57' E 023°37'0 0.0
2014-Jul-14 16:33N 37°57' E 023°37'1 0.9
2014-Jul-14 15:33N 37°57' E 023°36'1 0.8
2014-Jul-14 14:33N 37°56' E 023°37'1 1.1
2014-Jul-14 13:33N 37°57' E 023°36'0 0.2
2014-Jul-14 12:33N 37°57' E 023°37'0 0.0
2014-Jul-14 11:33N 37°57' E 023°37'0 0.0
2014-Jul-14 10:33N 37°57' E 023°37'0 0.0
2014-Jul-14 07:30N 37°57' E 023°37'0 0.3
2014-Jul-14 06:33N 37°58' E 023°36'1 0.9
2014-Jul-14 05:33N 37°57' E 023°36'0 0.3
2014-Jul-14 04:21N 37°57' E 023°36'2 1.9
2014-Jul-14 03:31N 37°56' E 023°38'2 0.2
2014-Jul-13 16:28N 37°57' E 023°35'1 0.2
2014-Jul-13 12:28N 37°57' E 023°36'2 0.8
2014-Jul-13 10:26N 37°56' E 023°36'2 0.1
2014-Jul-12 13:31N 37°57' E 023°37'0 0.0
2014-Jul-12 12:33N 37°57' E 023°37'0 0.0
2014-Jul-12 11:34N 37°57' E 023°37'0 0.0
2014-Jul-12 10:33N 37°57' E 023°37'0 0.0
2014-Jul-12 09:33N 37°57' E 023°37'2 2.5
2014-Jul-12 08:33N 37°57' E 023°34'4 4.2
2014-Jul-12 07:31N 38°01' E 023°36'2 2.1
2014-Jul-12 06:31N 38°00' E 023°33'4 4.6
2014-Jul-12 05:34N 37°57' E 023°36'1 1.4
2014-Jul-12 04:34N 37°55' E 023°36'0 0.3
2014-Jul-12 03:33N 37°55' E 023°36'  

Dump ship's entire track history